createdAt,value
2023-03-18T00:00:25.514Z,2.96
2023-03-18T00:02:57.650Z,2.95
2023-03-18T00:05:27.801Z,2.94
2023-03-18T00:07:57.615Z,2.94
2023-03-18T00:10:26.857Z,2.93
2023-03-18T00:12:55.977Z,2.92
2023-03-18T00:15:25.338Z,2.91
2023-03-18T00:17:54.948Z,2.90
2023-03-18T00:20:38.938Z,2.87
2023-03-18T00:23:10.717Z,2.86
2023-03-18T00:25:39.765Z,2.83
2023-03-18T00:28:08.674Z,2.81
2023-03-18T00:30:39.050Z,2.77
2023-03-18T00:33:10.319Z,2.73
2023-03-18T00:35:40.345Z,2.66
2023-03-18T00:38:20.976Z,2.59
2023-03-18T00:41:01.731Z,2.52
2023-03-18T00:43:34.157Z,2.47
2023-03-18T00:46:04.544Z,2.42
2023-03-18T00:48:34.693Z,2.36
2023-03-18T00:51:04.349Z,2.30
2023-03-18T00:53:34.112Z,2.25
2023-03-18T00:56:03.100Z,2.19
2023-03-18T00:58:32.156Z,2.14
2023-03-18T01:01:01.879Z,2.09
2023-03-18T01:03:32.498Z,2.04
2023-03-18T01:06:02.974Z,1.99
2023-03-18T01:08:32.514Z,1.94
2023-03-18T01:11:01.981Z,1.88
2023-03-18T01:13:31.188Z,1.83
2023-03-18T01:16:01.047Z,1.79
2023-03-18T01:18:30.551Z,1.76
2023-03-18T01:20:59.636Z,1.74
2023-03-18T01:23:31.458Z,1.74
2023-03-18T01:26:00.319Z,1.73
2023-03-18T01:28:29.828Z,1.72
2023-03-18T01:30:58.977Z,1.72
2023-03-18T01:33:29.294Z,1.73
2023-03-18T01:36:00.363Z,1.73
2023-03-18T01:38:31.588Z,1.72
2023-03-18T01:41:08.954Z,1.71
2023-03-18T01:43:41.085Z,1.70
2023-03-18T01:46:37.969Z,1.69
2023-03-18T01:49:14.324Z,1.69
2023-03-18T01:52:05.872Z,1.70
2023-03-18T01:54:38.587Z,1.69
2023-03-18T01:57:08.117Z,1.68
2023-03-18T01:59:39.013Z,1.68
2023-03-18T02:02:10.784Z,1.68
2023-03-18T02:04:45.298Z,1.68
2023-03-18T02:07:21.115Z,1.69
2023-03-18T02:09:51.157Z,1.70
2023-03-18T02:12:26.337Z,1.71
2023-03-18T02:14:58.119Z,1.71
2023-03-18T02:17:32.535Z,1.72
2023-03-18T02:20:10.916Z,1.73
2023-03-18T02:22:43.856Z,1.73
2023-03-18T02:25:26.665Z,1.75
2023-03-18T02:27:59.581Z,1.78
2023-03-18T02:30:38.483Z,1.79
2023-03-18T02:33:09.653Z,1.82
2023-03-18T02:35:40.140Z,1.83
2023-03-18T02:38:10.020Z,1.84
2023-03-18T02:40:40.203Z,1.85
2023-03-18T02:43:28.153Z,1.87
2023-03-18T02:46:44.396Z,1.89
2023-03-18T02:49:13.735Z,1.90
2023-03-18T02:51:43.037Z,1.91
2023-03-18T02:54:14.764Z,1.93
2023-03-18T02:56:44.152Z,1.93
2023-03-18T02:59:14.705Z,1.92
2023-03-18T03:01:44.593Z,1.92
2023-03-18T03:04:14.279Z,1.93
2023-03-18T03:06:43.633Z,1.94
2023-03-18T03:09:14.565Z,1.95
2023-03-18T03:11:45.075Z,1.96
2023-03-18T03:14:17.014Z,1.95
2023-03-18T03:16:47.759Z,1.95
2023-03-18T03:19:24.162Z,1.95
2023-03-18T03:21:54.043Z,1.95
2023-03-18T03:24:22.866Z,1.96
2023-03-18T03:26:53.468Z,1.96
2023-03-18T03:29:22.182Z,1.97
2023-03-18T03:31:51.891Z,1.97
2023-03-18T03:34:21.705Z,1.96
2023-03-18T03:36:50.486Z,1.96
2023-03-18T03:39:20.598Z,1.97
2023-03-18T03:41:49.610Z,1.97
2023-03-18T03:44:18.485Z,1.97
2023-03-18T03:46:51.555Z,1.96
2023-03-18T03:49:20.573Z,1.96
2023-03-18T03:51:49.490Z,1.97
2023-03-18T03:54:20.188Z,1.97
2023-03-18T03:56:50.946Z,1.97
2023-03-18T03:59:21.015Z,1.96
2023-03-18T04:02:12.167Z,1.95
2023-03-18T04:04:45.617Z,1.95
2023-03-18T04:07:23.034Z,1.95
2023-03-18T04:09:52.087Z,1.95
2023-03-18T04:12:21.550Z,1.95
2023-03-18T04:14:57.088Z,1.96
2023-03-18T04:17:25.941Z,1.97
2023-03-18T04:19:54.971Z,1.97
2023-03-18T04:22:24.613Z,1.98
2023-03-18T04:24:53.751Z,1.99
2023-03-18T04:27:23.347Z,1.99
2023-03-18T04:29:56.738Z,2.00
2023-03-18T04:32:30.960Z,2.02
2023-03-18T04:35:00.341Z,2.03
2023-03-18T04:37:29.662Z,2.05
2023-03-18T04:39:59.708Z,2.06
2023-03-18T04:42:28.801Z,2.09
2023-03-18T04:44:58.312Z,2.11
2023-03-18T04:47:28.732Z,2.13
2023-03-18T04:49:58.670Z,2.14
2023-03-18T04:52:27.865Z,2.17
2023-03-18T04:54:57.143Z,2.17
2023-03-18T04:57:26.788Z,2.18
2023-03-18T05:00:02.414Z,2.19
2023-03-18T05:02:32.713Z,2.22
2023-03-18T05:05:01.666Z,2.23
2023-03-18T05:07:32.387Z,2.27
2023-03-18T05:10:07.413Z,2.30
2023-03-18T05:12:43.855Z,2.37
2023-03-18T05:15:14.808Z,2.41
2023-03-18T05:17:48.892Z,2.44
2023-03-18T05:20:19.073Z,2.50
2023-03-18T05:22:50.241Z,2.56
2023-03-18T05:25:28.873Z,2.60
2023-03-18T05:27:59.144Z,2.61
2023-03-18T05:30:34.838Z,2.64
2023-03-18T05:33:05.386Z,2.67
2023-03-18T05:35:45.781Z,2.69
2023-03-18T05:38:15.171Z,2.67
2023-03-18T05:40:45.097Z,2.65
2023-03-18T05:43:22.375Z,2.67
2023-03-18T05:45:55.584Z,2.72
2023-03-18T05:48:32.393Z,2.79
2023-03-18T05:51:06.367Z,2.84
2023-03-18T05:53:36.645Z,2.82
2023-03-18T05:56:31.850Z,2.85
2023-03-18T05:59:04.104Z,2.88
2023-03-18T06:01:46.333Z,2.92
2023-03-18T06:04:17.748Z,2.97
2023-03-18T06:06:47.385Z,3.02
2023-03-18T06:09:21.124Z,3.08
2023-03-18T06:11:52.054Z,3.16
2023-03-18T06:14:21.622Z,3.20
2023-03-18T06:16:52.822Z,3.23
2023-03-18T06:19:23.067Z,3.25
2023-03-18T06:21:53.155Z,3.28
2023-03-18T06:24:22.296Z,3.32
2023-03-18T06:26:52.282Z,3.38
2023-03-18T06:29:25.657Z,3.45
2023-03-18T06:31:56.047Z,3.51
2023-03-18T06:34:33.035Z,3.56
2023-03-18T06:37:03.872Z,3.59
2023-03-18T06:39:33.513Z,3.62
2023-03-18T06:42:05.467Z,3.63
2023-03-18T06:44:43.276Z,3.64
2023-03-18T06:47:21.559Z,3.61
2023-03-18T06:49:57.073Z,3.58
2023-03-18T06:52:33.190Z,3.58
2023-03-18T06:55:07.596Z,3.61
2023-03-18T06:57:40.901Z,3.67
2023-03-18T07:00:14.302Z,3.64
2023-03-18T07:02:44.379Z,3.61
2023-03-18T07:05:15.413Z,3.60
2023-03-18T07:07:44.818Z,3.64
2023-03-18T07:10:27.891Z,3.66
2023-03-18T07:13:02.769Z,3.67
2023-03-18T07:15:33.693Z,3.68
2023-03-18T07:18:05.506Z,3.70
2023-03-18T07:20:37.164Z,3.70
2023-03-18T07:23:07.631Z,3.70
2023-03-18T07:25:37.007Z,3.72
2023-03-18T07:28:06.862Z,3.79
2023-03-18T07:30:36.277Z,3.82
2023-03-18T07:33:07.482Z,3.82
2023-03-18T07:35:41.370Z,3.85
2023-03-18T07:38:10.797Z,3.92
2023-03-18T07:40:39.859Z,3.96
2023-03-18T07:43:09.762Z,3.99
2023-03-18T07:45:41.638Z,4.04
2023-03-18T07:48:11.117Z,4.11
2023-03-18T07:50:41.422Z,4.14
2023-03-18T07:53:11.085Z,4.18
2023-03-18T07:55:41.317Z,4.25
2023-03-18T07:58:10.558Z,4.31
2023-03-18T08:00:40.247Z,4.34
2023-03-18T08:03:10.360Z,4.43
2023-03-18T08:05:40.288Z,4.49
2023-03-18T08:08:10.317Z,4.51
2023-03-18T08:10:43.791Z,4.54
2023-03-18T08:13:13.859Z,4.55
2023-03-18T08:15:43.116Z,4.57
2023-03-18T08:18:14.384Z,4.59
2023-03-18T08:20:45.226Z,4.60
2023-03-18T08:23:15.190Z,4.63
2023-03-18T08:25:44.359Z,4.72
2023-03-18T08:28:14.331Z,4.79
2023-03-18T08:30:48.135Z,4.83
2023-03-18T08:33:17.403Z,4.82
2023-03-18T08:35:46.891Z,4.79
2023-03-18T08:38:16.523Z,4.77
2023-03-18T08:40:47.028Z,4.75
2023-03-18T08:43:16.092Z,4.72
2023-03-18T08:45:46.427Z,4.73
2023-03-18T08:48:15.401Z,4.72
2023-03-18T08:50:50.070Z,4.68
2023-03-18T08:53:19.996Z,4.66
2023-03-18T08:55:48.946Z,4.64
2023-03-18T08:58:19.885Z,4.68
2023-03-18T09:00:50.926Z,4.70
2023-03-18T09:03:22.414Z,4.69
2023-03-18T09:05:53.906Z,4.64
2023-03-18T09:08:23.035Z,4.62
2023-03-18T09:10:54.862Z,4.57
2023-03-18T09:13:24.581Z,4.51
2023-03-18T09:15:57.621Z,4.50
2023-03-18T09:18:29.950Z,4.49
2023-03-18T09:20:58.913Z,4.49
2023-03-18T09:23:29.984Z,4.48
2023-03-18T09:26:00.334Z,4.53
2023-03-18T09:28:29.645Z,4.55
2023-03-18T09:30:58.931Z,4.57
2023-03-18T09:33:28.344Z,4.62
2023-03-18T09:35:57.566Z,4.63
2023-03-18T09:38:28.177Z,4.62
2023-03-18T09:41:13.591Z,4.61
2023-03-18T09:44:21.941Z,4.65
2023-03-18T09:47:23.407Z,4.73
2023-03-18T09:50:06.078Z,4.80
2023-03-18T09:52:46.336Z,4.88
2023-03-18T09:55:40.682Z,4.88
2023-03-18T09:58:26.292Z,4.91
2023-03-18T10:01:03.960Z,4.97
2023-03-18T10:04:14.205Z,5.00
2023-03-18T10:06:43.724Z,5.12
2023-03-18T10:09:47.582Z,5.15
2023-03-18T10:12:45.890Z,5.23
2023-03-18T10:15:27.379Z,5.28
2023-03-18T10:18:27.114Z,5.31
2023-03-18T10:21:29.788Z,5.40
2023-03-18T10:24:32.930Z,5.47
2023-03-18T10:27:25.813Z,5.53
2023-03-18T10:30:27.997Z,5.57
2023-03-18T10:33:18.431Z,5.56
2023-03-18T10:36:02.512Z,5.58
2023-03-18T10:38:38.722Z,5.62
2023-03-18T10:41:25.886Z,5.65
2023-03-18T10:43:56.996Z,5.68
2023-03-18T10:46:26.342Z,5.67
2023-03-18T10:49:01.222Z,5.74
2023-03-18T10:51:37.576Z,5.82
2023-03-18T10:54:14.027Z,5.84
2023-03-18T10:56:44.154Z,5.88
2023-03-18T10:59:18.539Z,5.94
2023-03-18T11:02:15.056Z,6.02
2023-03-18T11:04:55.838Z,6.04
2023-03-18T11:07:28.306Z,5.99
2023-03-18T11:10:12.671Z,5.93
2023-03-18T11:12:42.603Z,5.93
2023-03-18T11:15:13.337Z,5.90
2023-03-18T11:17:43.811Z,5.87
2023-03-18T11:20:21.429Z,5.84
2023-03-18T11:22:53.536Z,5.83
2023-03-18T11:25:26.264Z,5.89
2023-03-18T11:28:04.654Z,5.98
2023-03-18T11:30:46.594Z,6.07
2023-03-18T11:33:17.640Z,6.22
2023-03-18T11:35:58.255Z,6.42
2023-03-18T11:38:29.559Z,6.65
2023-03-18T11:41:09.050Z,6.79
2023-03-18T11:43:38.843Z,6.89
2023-03-18T11:46:09.514Z,6.98
2023-03-18T11:48:41.054Z,7.04
2023-03-18T11:51:40.084Z,7.09
2023-03-18T11:54:43.828Z,7.11
2023-03-18T11:57:20.856Z,7.12
2023-03-18T12:00:05.785Z,7.18
2023-03-18T12:03:19.545Z,7.23
2023-03-18T12:05:52.886Z,7.29
2023-03-18T12:09:07.483Z,7.32
2023-03-18T12:12:05.276Z,7.31
2023-03-18T12:14:39.520Z,7.24
2023-03-18T12:17:24.655Z,7.11
2023-03-18T12:20:30.730Z,7.00
2023-03-18T12:23:27.877Z,6.94
2023-03-18T12:26:25.390Z,6.98
2023-03-18T12:29:19.506Z,7.05
2023-03-18T12:31:57.683Z,7.12
2023-03-18T12:34:47.174Z,7.13
2023-03-18T12:37:34.890Z,7.13
2023-03-18T12:40:13.282Z,7.13
2023-03-18T12:42:52.511Z,7.10
2023-03-18T12:45:24.275Z,7.10
2023-03-18T12:48:13.128Z,7.11
2023-03-18T12:50:43.488Z,7.12
2023-03-18T12:53:17.771Z,7.13
2023-03-18T12:55:50.997Z,7.09
2023-03-18T12:58:23.873Z,7.06
2023-03-18T13:00:58.005Z,7.05
2023-03-18T13:03:38.945Z,7.07
2023-03-18T13:06:34.565Z,7.13
2023-03-18T13:09:27.217Z,7.18
2023-03-18T13:12:21.029Z,7.18
2023-03-18T13:15:08.858Z,7.20
2023-03-18T13:17:40.451Z,7.24
2023-03-18T13:20:34.303Z,7.28
2023-03-18T13:23:41.882Z,7.32
2023-03-18T13:26:15.745Z,7.33
2023-03-18T13:29:08.402Z,7.36
2023-03-18T13:31:47.925Z,7.42
2023-03-18T13:34:43.663Z,7.48
2023-03-18T13:37:37.032Z,7.55
2023-03-18T13:40:10.576Z,7.60
2023-03-18T13:42:39.674Z,7.62
2023-03-18T13:45:22.806Z,7.68
2023-03-18T13:47:59.911Z,7.72
2023-03-18T13:50:43.727Z,7.74
2023-03-18T13:53:26.780Z,7.70
2023-03-18T13:55:59.012Z,7.68
2023-03-18T13:58:30.833Z,7.65
2023-03-18T14:01:56.747Z,7.62
2023-03-18T14:04:32.524Z,7.59
2023-03-18T14:07:16.319Z,7.56
2023-03-18T14:10:15.396Z,7.51
2023-03-18T14:12:48.765Z,7.46
2023-03-18T14:15:24.460Z,7.45
2023-03-18T14:17:59.064Z,7.49
2023-03-18T14:20:29.131Z,7.53
2023-03-18T14:23:37.976Z,7.54
2023-03-18T14:26:17.268Z,7.50
2023-03-18T14:29:11.436Z,7.42
2023-03-18T14:31:44.771Z,7.33
2023-03-18T14:34:20.143Z,7.24
2023-03-18T14:36:55.091Z,7.17
2023-03-18T14:39:34.739Z,7.07
2023-03-18T14:42:21.748Z,7.01
2023-03-18T14:44:54.394Z,6.97
2023-03-18T14:47:54.874Z,6.98
2023-03-18T14:50:47.485Z,6.98
2023-03-18T14:53:26.455Z,6.99
2023-03-18T14:55:57.401Z,6.98
2023-03-18T14:58:27.932Z,6.98
2023-03-18T15:01:05.679Z,6.97
2023-03-18T15:03:35.374Z,6.96
2023-03-18T15:06:05.321Z,6.94
2023-03-18T15:08:47.329Z,6.93
2023-03-18T15:11:19.247Z,6.91
2023-03-18T15:13:48.369Z,6.88
2023-03-18T15:16:20.689Z,6.84
2023-03-18T15:18:55.295Z,6.80
2023-03-18T15:21:35.472Z,6.75
2023-03-18T15:24:08.072Z,6.69
2023-03-18T15:26:39.630Z,6.64
2023-03-18T15:30:01.354Z,6.60
2023-03-18T15:32:32.699Z,6.53
2023-03-18T15:35:12.297Z,6.47
2023-03-18T15:37:43.500Z,6.40
2023-03-18T15:40:26.545Z,6.32
2023-03-18T15:42:58.850Z,6.25
2023-03-18T15:45:29.332Z,6.16
2023-03-18T15:48:00.125Z,6.08
2023-03-18T15:50:30.964Z,5.99
2023-03-18T15:53:30.794Z,5.90
2023-03-18T15:56:08.002Z,5.81
2023-03-18T15:58:38.220Z,5.72
2023-03-18T16:01:08.453Z,5.63
2023-03-18T16:03:43.793Z,5.55
2023-03-18T16:06:15.272Z,5.46
2023-03-18T16:08:46.491Z,5.36
2023-03-18T16:11:18.254Z,5.28
2023-03-18T16:13:47.909Z,5.19
2023-03-18T16:16:29.455Z,5.10
2023-03-18T16:19:00.150Z,5.00
2023-03-18T16:21:30.008Z,4.90
2023-03-18T16:23:59.336Z,4.82
2023-03-18T16:26:28.705Z,4.73
2023-03-18T16:28:57.639Z,4.65
2023-03-18T16:31:28.256Z,4.60
2023-03-18T16:33:57.364Z,4.55
2023-03-18T16:36:32.642Z,4.49
2023-03-18T16:39:02.120Z,4.43
2023-03-18T16:41:32.013Z,4.37
2023-03-18T16:44:02.143Z,4.31
2023-03-18T16:46:39.097Z,4.25
2023-03-18T16:49:16.734Z,4.18
2023-03-18T16:51:47.244Z,4.11
2023-03-18T16:54:22.090Z,4.04
2023-03-18T16:56:53.056Z,3.98
2023-03-18T16:59:25.444Z,3.90
2023-03-18T17:01:54.611Z,3.84
2023-03-18T17:04:34.800Z,3.77
2023-03-18T17:07:05.069Z,3.69
2023-03-18T17:09:34.837Z,3.64
2023-03-18T17:12:07.621Z,3.59
2023-03-18T17:14:39.256Z,3.54
2023-03-18T17:17:14.730Z,3.52
2023-03-18T17:19:46.296Z,3.49
2023-03-18T17:22:24.136Z,3.46
2023-03-18T17:24:54.059Z,3.41
2023-03-18T17:27:40.104Z,3.36
2023-03-18T17:30:20.875Z,3.32
2023-03-18T17:32:50.340Z,3.27
2023-03-18T17:35:21.661Z,3.23
2023-03-18T17:37:51.102Z,3.17
2023-03-18T17:40:22.881Z,3.13
2023-03-18T17:42:54.388Z,3.08
2023-03-18T17:45:32.870Z,3.05
2023-03-18T17:48:30.495Z,3.02
2023-03-18T17:51:20.153Z,3.00
2023-03-18T17:53:56.894Z,2.98
2023-03-18T17:56:28.340Z,2.93
2023-03-18T17:58:59.290Z,2.87
2023-03-18T18:01:30.497Z,2.81
2023-03-18T18:04:00.935Z,2.73
2023-03-18T18:06:30.788Z,2.65
2023-03-18T18:09:00.781Z,2.60
2023-03-18T18:11:38.363Z,2.58
2023-03-18T18:14:16.136Z,2.58
2023-03-18T18:16:46.586Z,2.58
2023-03-18T18:19:16.629Z,2.58
2023-03-18T18:21:46.607Z,2.54
2023-03-18T18:24:26.929Z,2.50
2023-03-18T18:26:58.201Z,2.43
2023-03-18T18:29:34.889Z,2.36
2023-03-18T18:32:07.232Z,2.29
2023-03-18T18:34:37.268Z,2.23
2023-03-18T18:37:07.036Z,2.14
2023-03-18T18:39:35.968Z,2.06
2023-03-18T18:42:12.791Z,1.97
2023-03-18T18:44:43.839Z,1.89
2023-03-18T18:47:23.878Z,1.82
2023-03-18T18:49:53.251Z,1.76
2023-03-18T18:52:23.792Z,1.72
2023-03-18T18:54:53.102Z,1.65
2023-03-18T18:57:30.924Z,1.58
2023-03-18T18:59:59.950Z,1.52
2023-03-18T19:02:37.975Z,1.46
2023-03-18T19:05:08.597Z,1.39
2023-03-18T19:07:37.946Z,1.32
2023-03-18T19:10:08.911Z,1.25
2023-03-18T19:12:44.830Z,1.19
2023-03-18T19:15:15.673Z,1.13
2023-03-18T19:17:46.995Z,1.09
2023-03-18T19:20:30.236Z,1.03
2023-03-18T19:22:59.985Z,0.98
2023-03-18T19:25:30.125Z,0.92
2023-03-18T19:27:59.531Z,0.89
2023-03-18T19:30:29.701Z,0.86
2023-03-18T19:33:00.212Z,0.83
2023-03-18T19:35:29.459Z,0.79
2023-03-18T19:37:59.795Z,0.75
2023-03-18T19:40:34.710Z,0.69
2023-03-18T19:43:14.076Z,0.65
2023-03-18T19:45:44.737Z,0.61
2023-03-18T19:48:24.021Z,0.58
2023-03-18T19:50:53.478Z,0.55
2023-03-18T19:53:24.534Z,0.50
2023-03-18T19:55:54.107Z,0.46
2023-03-18T19:58:26.710Z,0.41
2023-03-18T20:00:56.787Z,0.36
2023-03-18T20:03:27.037Z,0.31
2023-03-18T20:06:03.943Z,0.24
2023-03-18T20:08:34.294Z,0.20
2023-03-18T20:11:03.497Z,0.16
2023-03-18T20:13:40.322Z,0.12
2023-03-18T20:16:15.265Z,0.07
2023-03-18T20:18:44.650Z,0.02
2023-03-18T20:21:35.729Z,-0.06
2023-03-18T20:24:10.112Z,-0.11
2023-03-18T20:26:44.776Z,-0.15
2023-03-18T20:29:21.272Z,-0.19
2023-03-18T20:31:50.470Z,-0.23
2023-03-18T20:34:20.419Z,-0.26
2023-03-18T20:36:49.765Z,-0.30
2023-03-18T20:39:20.741Z,-0.33
2023-03-18T20:41:50.536Z,-0.36
2023-03-18T20:44:19.604Z,-0.39
2023-03-18T20:46:48.589Z,-0.42
2023-03-18T20:49:20.271Z,-0.44
2023-03-18T20:51:51.178Z,-0.46
2023-03-18T20:54:23.866Z,-0.49
2023-03-18T20:56:52.770Z,-0.53
2023-03-18T20:59:22.358Z,-0.57
2023-03-18T21:01:51.959Z,-0.60
2023-03-18T21:04:20.928Z,-0.64
2023-03-18T21:06:49.994Z,-0.67
2023-03-18T21:09:19.148Z,-0.69
2023-03-18T21:11:48.056Z,-0.72
2023-03-18T21:14:17.279Z,-0.75
2023-03-18T21:16:46.773Z,-0.79
2023-03-18T21:19:17.604Z,-0.82
2023-03-18T21:21:46.752Z,-0.84
2023-03-18T21:24:24.234Z,-0.86
2023-03-18T21:27:04.338Z,-0.90
2023-03-18T21:29:34.595Z,-0.93
2023-03-18T21:32:05.713Z,-0.96
2023-03-18T21:34:36.890Z,-0.99
2023-03-18T21:37:13.135Z,-1.03
2023-03-18T21:39:43.325Z,-1.06
2023-03-18T21:42:17.897Z,-1.08
2023-03-18T21:44:47.248Z,-1.13
2023-03-18T21:47:18.112Z,-1.16
2023-03-18T21:49:49.699Z,-1.20
2023-03-18T21:52:23.063Z,-1.22
2023-03-18T21:54:52.417Z,-1.25
2023-03-18T21:57:23.600Z,-1.28
2023-03-18T21:59:53.173Z,-1.31
2023-03-18T22:02:25.259Z,-1.34
2023-03-18T22:04:55.647Z,-1.38
2023-03-18T22:07:31.740Z,-1.41
2023-03-18T22:10:01.535Z,-1.44
2023-03-18T22:12:31.687Z,-1.46
2023-03-18T22:15:01.189Z,-1.50
2023-03-18T22:17:32.382Z,-1.53
2023-03-18T22:20:01.876Z,-1.57
2023-03-18T22:22:37.266Z,-1.60
2023-03-18T22:25:08.841Z,-1.63
2023-03-18T22:27:37.868Z,-1.65
2023-03-18T22:30:09.859Z,-1.67
2023-03-18T22:32:41.622Z,-1.69
2023-03-18T22:35:18.043Z,-1.73
2023-03-18T22:37:47.340Z,-1.75
2023-03-18T22:40:18.825Z,-1.77
2023-03-18T22:42:48.812Z,-1.79
2023-03-18T22:45:26.228Z,-1.81
2023-03-18T22:47:58.670Z,-1.82
2023-03-18T22:50:28.820Z,-1.83
2023-03-18T22:53:07.828Z,-1.83
2023-03-18T22:55:39.286Z,-1.84
2023-03-18T22:58:08.221Z,-1.85
2023-03-18T23:00:41.539Z,-1.85
2023-03-18T23:03:14.152Z,-1.84
2023-03-18T23:05:43.060Z,-1.82
2023-03-18T23:08:12.411Z,-1.80
2023-03-18T23:10:44.059Z,-1.79
2023-03-18T23:13:17.301Z,-1.77
2023-03-18T23:15:47.996Z,-1.73
2023-03-18T23:18:17.570Z,-1.68
2023-03-18T23:20:48.636Z,-1.64
2023-03-18T23:23:18.635Z,-1.59
2023-03-18T23:25:47.916Z,-1.55
2023-03-18T23:28:21.436Z,-1.49
2023-03-18T23:30:51.847Z,-1.43
2023-03-18T23:33:21.171Z,-1.38
2023-03-18T23:35:50.172Z,-1.34
2023-03-18T23:38:19.508Z,-1.30
2023-03-18T23:40:48.750Z,-1.27
2023-03-18T23:43:21.821Z,-1.24
2023-03-18T23:45:51.617Z,-1.22
2023-03-18T23:48:20.837Z,-1.22
2023-03-18T23:50:50.193Z,-1.23
2023-03-18T23:53:21.196Z,-1.22
2023-03-18T23:55:50.567Z,-1.19
2023-03-18T23:58:20.380Z,-1.15
